createdAt,value
2022-10-18T00:01:12.371Z,15.50
2022-10-18T00:05:17.979Z,16.50
2022-10-18T00:09:20.131Z,16.90
2022-10-18T00:13:22.216Z,15.30
2022-10-18T00:17:25.152Z,16.00
2022-10-18T00:21:27.576Z,15.10
2022-10-18T00:25:29.633Z,15.10
2022-10-18T00:29:31.737Z,15.60
2022-10-18T00:33:33.727Z,16.20
2022-10-18T00:37:35.889Z,15.50
2022-10-18T00:41:37.964Z,15.40
2022-10-18T00:45:39.827Z,14.30
2022-10-18T00:49:53.248Z,15.50
2022-10-18T00:53:55.211Z,15.50
2022-10-18T00:57:57.614Z,14.60
2022-10-18T01:01:59.660Z,13.80
2022-10-18T01:06:01.596Z,15.00
2022-10-18T01:10:03.920Z,15.70
2022-10-18T01:14:23.341Z,15.50
2022-10-18T01:18:41.164Z,14.40
2022-10-18T01:23:03.808Z,14.40
2022-10-18T01:27:08.723Z,13.90
2022-10-18T01:31:20.988Z,14.30
2022-10-18T01:35:49.289Z,14.70
2022-10-18T01:39:56.711Z,13.10
2022-10-18T01:44:01.952Z,13.50
2022-10-18T01:48:04.073Z,13.80
2022-10-18T01:52:06.047Z,16.20
2022-10-18T01:56:53.039Z,17.00
2022-10-18T02:01:03.417Z,16.60
2022-10-18T02:05:32.609Z,15.20
2022-10-18T02:09:46.370Z,13.50
2022-10-18T02:13:56.585Z,15.40
2022-10-18T02:17:58.562Z,15.20
2022-10-18T02:22:01.361Z,15.90
2022-10-18T02:26:03.794Z,15.90
2022-10-18T02:30:06.469Z,14.60
2022-10-18T02:34:31.654Z,15.50
2022-10-18T02:38:34.310Z,16.20
2022-10-18T02:42:39.318Z,15.80
2022-10-18T02:46:41.473Z,14.80
2022-10-18T02:50:43.374Z,14.30
2022-10-18T02:54:45.201Z,15.00
2022-10-18T02:58:47.022Z,14.30
2022-10-18T03:02:48.979Z,15.40
2022-10-18T03:06:50.876Z,16.30
2022-10-18T03:10:52.682Z,17.80
2022-10-18T03:14:54.513Z,16.10
2022-10-18T03:18:56.392Z,14.00
2022-10-18T03:22:58.237Z,16.30
2022-10-18T03:27:00.032Z,16.20
2022-10-18T03:31:03.952Z,14.30
2022-10-18T03:35:07.366Z,14.70
2022-10-18T03:39:11.942Z,16.30
2022-10-18T03:43:14.092Z,13.80
2022-10-18T03:47:16.040Z,14.80
2022-10-18T03:51:18.028Z,14.90
2022-10-18T03:55:19.849Z,14.90
2022-10-18T03:59:22.507Z,15.10
2022-10-18T04:03:24.386Z,14.50
2022-10-18T04:07:26.264Z,14.60
2022-10-18T04:11:28.188Z,13.30
2022-10-18T04:15:30.077Z,14.60
2022-10-18T04:19:31.884Z,16.30
2022-10-18T04:23:36.376Z,15.80
2022-10-18T04:27:40.807Z,15.20
2022-10-18T04:31:42.828Z,14.60
2022-10-18T04:35:45.960Z,12.90
2022-10-18T04:39:51.148Z,14.40
2022-10-18T04:43:55.541Z,14.00
2022-10-18T04:47:57.347Z,14.40
2022-10-18T04:51:59.168Z,14.20
2022-10-18T04:56:01.007Z,13.40
2022-10-18T05:00:03.907Z,12.90
2022-10-18T05:04:05.728Z,14.90
2022-10-18T05:08:07.620Z,14.20
2022-10-18T05:12:09.539Z,13.90
2022-10-18T05:16:11.461Z,12.20
2022-10-18T05:24:16.240Z,13.20
2022-10-18T05:32:39.884Z,12.80
2022-10-18T05:36:41.711Z,11.40
2022-10-18T05:40:43.535Z,11.90
2022-10-18T05:44:45.538Z,12.40
2022-10-18T05:48:50.915Z,12.70
2022-10-18T05:53:02.665Z,11.70
2022-10-18T05:57:14.713Z,11.80
2022-10-18T06:01:17.445Z,10.30
2022-10-18T06:05:19.349Z,13.00
2022-10-18T06:09:21.621Z,13.50
2022-10-18T06:13:23.696Z,12.60
2022-10-18T06:17:26.829Z,11.10
2022-10-18T06:21:32.260Z,11.70
2022-10-18T06:25:34.164Z,11.60
2022-10-18T06:29:37.439Z,10.70
2022-10-18T06:33:39.437Z,11.10
2022-10-18T06:41:44.835Z,11.10
2022-10-18T06:45:55.938Z,12.10
2022-10-18T06:49:57.779Z,10.10
2022-10-18T06:54:16.889Z,12.30
2022-10-18T06:58:19.845Z,9.90
2022-10-18T07:02:21.859Z,10.30
2022-10-18T07:06:24.296Z,9.90
2022-10-18T07:10:26.262Z,11.10
2022-10-18T07:14:29.105Z,9.60
2022-10-18T07:18:51.735Z,10.30
2022-10-18T07:22:56.608Z,8.90
2022-10-18T07:26:59.056Z,9.40
2022-10-18T07:31:06.104Z,9.70
2022-10-18T07:35:08.407Z,7.70
2022-10-18T07:39:10.378Z,8.60
2022-10-18T07:43:12.514Z,8.10
2022-10-18T07:47:14.791Z,8.90
2022-10-18T07:51:18.764Z,8.50
2022-10-18T07:55:20.614Z,8.70
2022-10-18T07:59:22.489Z,8.00
2022-10-18T08:03:27.605Z,7.50
2022-10-18T08:07:29.755Z,7.60
2022-10-18T08:11:32.113Z,7.40
2022-10-18T08:15:33.981Z,6.80
2022-10-18T08:19:35.929Z,6.40
2022-10-18T08:23:38.964Z,5.90
2022-10-18T08:27:41.885Z,5.90
2022-10-18T08:31:43.744Z,5.60
2022-10-18T08:35:55.557Z,6.60
2022-10-18T08:39:57.494Z,6.40
2022-10-18T08:44:18.269Z,6.80
2022-10-18T08:48:27.070Z,6.50
2022-10-18T08:53:04.718Z,5.70
2022-10-18T08:57:14.591Z,5.90
2022-10-18T09:01:27.522Z,5.70
2022-10-18T09:06:00.896Z,6.20
2022-10-18T09:10:41.714Z,6.40
2022-10-18T09:14:49.603Z,5.70
2022-10-18T09:18:51.605Z,5.70
2022-10-18T09:23:12.026Z,6.70
2022-10-18T09:27:16.103Z,5.60
2022-10-18T09:31:30.214Z,6.60
2022-10-18T09:36:02.463Z,6.50
2022-10-18T09:40:19.002Z,5.60
2022-10-18T09:44:27.153Z,7.10
2022-10-18T09:48:35.660Z,5.10
2022-10-18T09:52:44.036Z,6.10
2022-10-18T09:56:50.584Z,5.30
2022-10-18T10:00:53.360Z,5.90
2022-10-18T10:04:55.920Z,5.30
2022-10-18T10:09:15.034Z,5.90
2022-10-18T10:13:24.136Z,5.40
2022-10-18T10:17:30.913Z,5.50
2022-10-18T10:21:33.335Z,7.10
2022-10-18T10:25:38.404Z,6.70
2022-10-18T10:29:46.402Z,7.50
2022-10-18T10:33:59.960Z,7.20
2022-10-18T10:38:02.053Z,5.40
2022-10-18T10:42:05.835Z,6.40
2022-10-18T10:46:13.093Z,6.90
2022-10-18T10:50:27.670Z,6.40
2022-10-18T10:54:38.895Z,5.80
2022-10-18T10:58:41.753Z,6.60
2022-10-18T11:02:55.385Z,7.30
2022-10-18T11:07:19.781Z,6.10
2022-10-18T11:11:27.486Z,6.30
2022-10-18T11:15:35.545Z,6.60
2022-10-18T11:24:02.553Z,6.00
2022-10-18T11:28:42.240Z,6.30
2022-10-18T11:32:59.309Z,6.80
2022-10-18T11:37:26.403Z,5.50
2022-10-18T11:41:50.063Z,6.10
2022-10-18T11:46:07.890Z,7.10
2022-10-18T11:50:29.876Z,6.30
2022-10-18T11:54:56.072Z,5.40
2022-10-18T11:59:07.233Z,6.40
2022-10-18T12:03:27.898Z,6.30
2022-10-18T12:07:39.662Z,5.90
2022-10-18T12:12:06.016Z,6.40
2022-10-18T12:16:09.936Z,5.10
2022-10-18T12:20:27.321Z,6.20
2022-10-18T12:24:31.367Z,5.40
2022-10-18T12:28:56.715Z,6.80
2022-10-18T12:33:28.101Z,6.40
2022-10-18T12:37:56.522Z,5.90
2022-10-18T12:41:58.708Z,6.70
2022-10-18T12:46:02.013Z,5.40
2022-10-18T12:50:22.590Z,6.50
2022-10-18T12:54:36.295Z,6.30
2022-10-18T12:58:38.246Z,5.80
2022-10-18T13:02:40.470Z,5.60
2022-10-18T13:06:58.006Z,6.60
2022-10-18T13:11:09.298Z,6.50
2022-10-18T13:15:26.996Z,6.80
2022-10-18T13:20:07.683Z,7.90
2022-10-18T13:24:17.060Z,6.90
2022-10-18T13:28:31.011Z,7.00
2022-10-18T13:33:00.653Z,7.00
2022-10-18T13:37:18.320Z,9.30
2022-10-18T13:45:35.456Z,8.10
2022-10-18T13:49:55.972Z,7.80
2022-10-18T13:54:14.727Z,7.80
2022-10-18T13:59:13.187Z,7.90
2022-10-18T14:03:55.546Z,7.70
2022-10-18T14:07:58.111Z,7.90
2022-10-18T14:12:14.332Z,8.80
2022-10-18T14:16:53.896Z,9.80
2022-10-18T14:21:13.389Z,10.00
2022-10-18T14:25:26.449Z,10.00
2022-10-18T14:29:28.417Z,11.50
2022-10-18T14:33:37.605Z,9.30
2022-10-18T14:37:39.977Z,10.80
2022-10-18T14:41:53.363Z,12.50
2022-10-18T14:46:16.149Z,11.30
2022-10-18T14:50:23.781Z,10.90
2022-10-18T14:54:32.221Z,10.30
2022-10-18T14:58:37.481Z,12.20
2022-10-18T15:02:39.610Z,13.80
2022-10-18T15:06:46.329Z,14.70
2022-10-18T15:10:49.199Z,14.40
2022-10-18T15:14:53.018Z,20.00
2022-10-18T15:19:03.869Z,13.40
2022-10-18T15:23:24.814Z,14.10
2022-10-18T15:27:32.279Z,12.70
2022-10-18T15:31:43.918Z,13.10
2022-10-18T15:35:45.999Z,11.80
2022-10-18T15:39:48.376Z,10.50
2022-10-18T15:43:50.328Z,10.50
2022-10-18T15:48:11.710Z,10.60
2022-10-18T15:52:30.047Z,11.60
2022-10-18T15:56:35.838Z,10.70
2022-10-18T16:00:37.850Z,10.60
2022-10-18T16:04:39.803Z,11.40
2022-10-18T16:08:52.694Z,11.10
2022-10-18T16:17:03.606Z,10.80
2022-10-18T16:21:13.539Z,9.30
2022-10-18T16:25:15.807Z,10.70
2022-10-18T16:29:24.065Z,13.20
2022-10-18T16:33:26.706Z,16.90
2022-10-18T16:37:29.129Z,18.20
2022-10-18T16:41:31.092Z,12.80
2022-10-18T16:45:33.124Z,12.70
2022-10-18T16:49:35.059Z,15.20
2022-10-18T16:53:36.961Z,14.60
2022-10-18T16:57:38.864Z,15.30
2022-10-18T17:01:40.778Z,14.60
2022-10-18T17:05:43.699Z,17.60
2022-10-18T17:09:49.329Z,52.50
2022-10-18T17:13:51.667Z,52.50
2022-10-18T17:17:53.615Z,95.20
2022-10-18T17:22:00.165Z,61.10
2022-10-18T17:26:07.249Z,28.00
2022-10-18T17:30:17.566Z,27.50
2022-10-18T17:34:21.304Z,25.50
2022-10-18T17:38:23.820Z,18.20
2022-10-18T17:42:25.953Z,17.30
2022-10-18T17:46:28.046Z,16.30
2022-10-18T17:50:30.126Z,14.90
2022-10-18T17:54:32.190Z,9.50
2022-10-18T17:58:34.811Z,5.60
2022-10-18T18:02:39.717Z,4.70
2022-10-18T18:06:45.062Z,4.10
2022-10-18T18:14:54.327Z,3.40
2022-10-18T18:18:58.049Z,3.20
2022-10-18T18:23:00.128Z,3.00
2022-10-18T18:27:02.161Z,3.80
2022-10-18T18:31:24.559Z,4.40
2022-10-18T18:35:26.784Z,4.90
2022-10-18T18:39:35.303Z,5.20
2022-10-18T18:47:40.419Z,9.40
2022-10-18T18:51:42.616Z,5.30
2022-10-18T18:55:44.754Z,4.40
2022-10-18T18:59:46.828Z,4.30
2022-10-18T19:03:51.220Z,5.50
2022-10-18T19:07:53.200Z,4.80
2022-10-18T19:11:55.779Z,4.10
2022-10-18T19:16:19.431Z,4.00
2022-10-18T19:20:21.545Z,3.80
2022-10-18T19:24:25.337Z,4.60
2022-10-18T19:28:27.955Z,4.20
2022-10-18T19:32:29.940Z,4.70
2022-10-18T19:36:32.691Z,7.90
2022-10-18T19:40:34.570Z,10.30
2022-10-18T19:44:36.991Z,12.80
2022-10-18T19:48:39.120Z,20.50
2022-10-18T19:52:41.112Z,23.50
2022-10-18T19:56:43.376Z,16.10
2022-10-18T20:00:51.981Z,11.50
2022-10-18T20:04:53.860Z,6.80
2022-10-18T20:08:57.556Z,4.10
2022-10-18T20:12:59.492Z,5.50
2022-10-18T20:17:01.390Z,11.40
2022-10-18T20:21:07.592Z,9.80
2022-10-18T20:25:09.504Z,6.20
2022-10-18T20:29:12.109Z,6.00
2022-10-18T20:33:14.099Z,4.60
2022-10-18T20:37:16.182Z,5.70
2022-10-18T20:41:29.779Z,5.10
2022-10-18T20:45:31.759Z,5.30
2022-10-18T20:49:33.727Z,4.20
2022-10-18T20:53:37.491Z,3.50
2022-10-18T20:57:39.730Z,4.00
2022-10-18T21:01:42.118Z,4.00
2022-10-18T21:05:44.198Z,4.10
2022-10-18T21:09:46.225Z,4.30
2022-10-18T21:13:53.081Z,5.00
2022-10-18T21:17:54.977Z,5.90
2022-10-18T21:21:57.501Z,5.50
2022-10-18T21:25:59.400Z,7.20
2022-10-18T21:30:01.923Z,8.70
2022-10-18T21:34:07.363Z,7.80
2022-10-18T21:38:09.646Z,9.90
2022-10-18T21:42:13.141Z,7.40
2022-10-18T21:46:16.764Z,6.10
2022-10-18T21:50:18.611Z,5.90
2022-10-18T21:54:20.568Z,5.00
2022-10-18T21:58:22.432Z,4.60
2022-10-18T22:02:24.263Z,4.90
2022-10-18T22:06:29.545Z,4.40
2022-10-18T22:10:32.563Z,4.00
2022-10-18T22:14:34.801Z,4.10
2022-10-18T22:18:37.173Z,3.80
2022-10-18T22:22:39.072Z,3.60
2022-10-18T22:26:42.612Z,4.50
2022-10-18T22:30:44.514Z,4.20
2022-10-18T22:34:46.348Z,4.20
2022-10-18T22:38:48.371Z,5.50
2022-10-18T22:42:51.932Z,5.50
2022-10-18T22:46:53.765Z,5.70
2022-10-18T22:50:55.772Z,6.00
2022-10-18T22:54:57.583Z,5.80
2022-10-18T22:58:59.537Z,6.50
2022-10-18T23:03:01.351Z,5.90
2022-10-18T23:07:03.295Z,6.00
2022-10-18T23:11:05.272Z,5.30
2022-10-18T23:15:07.749Z,6.60
2022-10-18T23:19:14.790Z,5.80
2022-10-18T23:23:16.660Z,5.00
2022-10-18T23:27:18.480Z,7.00
2022-10-18T23:31:29.079Z,6.70
2022-10-18T23:35:31.268Z,7.60
2022-10-18T23:39:33.137Z,6.50
2022-10-18T23:43:35.454Z,7.00
2022-10-18T23:47:37.325Z,6.50
2022-10-18T23:51:39.163Z,7.80
2022-10-18T23:55:59.154Z,7.10
